createdAt,value
2022-08-05T00:00:00.649Z,0.2
2022-08-05T00:05:05.986Z,0.1
2022-08-05T00:10:00.274Z,0.6
2022-08-05T00:15:00.120Z,2.1
2022-08-05T00:20:03.185Z,0.7
2022-08-05T00:25:01.310Z,1.7
2022-08-05T00:30:00.650Z,1.7
2022-08-05T00:35:07.852Z,1.7
2022-08-05T00:40:00.570Z,4.8
2022-08-05T00:45:00.203Z,3.6
2022-08-05T00:50:00.263Z,4.9
2022-08-05T00:55:00.741Z,1.5
2022-08-05T01:00:00.271Z,2.8
2022-08-05T01:05:00.114Z,1.3
2022-08-05T01:10:00.281Z,2.9
2022-08-05T01:15:00.128Z,2.3
2022-08-05T01:20:03.510Z,3.2
2022-08-05T01:25:00.117Z,1.2
2022-08-05T01:30:00.276Z,2.4
2022-08-05T01:35:00.140Z,2.0
2022-08-05T01:40:00.490Z,1.8
2022-08-05T01:45:03.167Z,1.8
2022-08-05T01:50:03.228Z,4.6
2022-08-05T01:55:00.660Z,3.4
2022-08-05T02:00:00.381Z,2.7
2022-08-05T02:05:00.144Z,4.6
2022-08-05T02:10:00.597Z,4.4
2022-08-05T02:15:03.287Z,6.1
2022-08-05T02:20:00.548Z,3.9
2022-08-05T02:25:00.446Z,3.6
2022-08-05T02:30:01.174Z,5.1
2022-08-05T02:35:09.775Z,5.1
2022-08-05T02:40:00.218Z,5.9
2022-08-05T02:45:01.368Z,4.0
2022-08-05T02:50:01.018Z,3.0
2022-08-05T02:55:05.695Z,2.9
2022-08-05T03:00:01.539Z,2.9
2022-08-05T03:05:00.121Z,3.5
2022-08-05T03:10:02.288Z,0.6
2022-08-05T03:15:00.102Z,2.1
2022-08-05T03:20:00.290Z,2.2
2022-08-05T03:25:11.603Z,0.9
2022-08-05T03:30:08.016Z,2.5
2022-08-05T03:35:00.916Z,1.3
2022-08-05T03:40:03.926Z,3.3
2022-08-05T03:45:21.023Z,2.7
2022-08-05T03:50:01.191Z,3.3
2022-08-05T03:55:54.411Z,1.7
2022-08-05T04:00:01.823Z,1.8
2022-08-05T04:05:00.256Z,3.1
2022-08-05T04:10:03.340Z,1.4
2022-08-05T04:15:00.119Z,1.5
2022-08-05T04:20:02.605Z,3.0
2022-08-05T04:25:00.782Z,3.7
2022-08-05T04:30:03.976Z,1.2
2022-08-05T04:35:00.126Z,3.0
2022-08-05T04:40:00.280Z,3.0
2022-08-05T04:45:01.085Z,0.3
2022-08-05T04:50:11.409Z,2.8
2022-08-05T04:55:14.047Z,4.2
2022-08-05T05:00:00.401Z,0.2
2022-08-05T05:05:02.968Z,3.0
2022-08-05T05:10:02.950Z,5.7
2022-08-05T05:15:00.132Z,2.4
2022-08-05T05:20:00.303Z,4.7
2022-08-05T05:25:16.306Z,1.2
2022-08-05T05:30:03.662Z,2.4
2022-08-05T05:35:03.232Z,3.9
2022-08-05T05:40:00.246Z,2.5
2022-08-05T05:45:03.153Z,4.2
2022-08-05T05:50:01.908Z,5.4
2022-08-05T05:55:01.806Z,3.2
2022-08-05T06:05:03.609Z,5.2
2022-08-05T06:10:10.114Z,4.2
2022-08-05T06:15:00.498Z,7.3
2022-08-05T06:20:00.258Z,8.7
2022-08-05T06:25:00.305Z,3.3
2022-08-05T06:30:16.916Z,5.7
2022-08-05T06:35:15.337Z,7.3
2022-08-05T06:40:02.645Z,6.1
2022-08-05T06:45:08.124Z,8.6
2022-08-05T06:50:05.523Z,5.0
2022-08-05T06:55:02.627Z,6.2
2022-08-05T07:00:00.705Z,3.4
2022-08-05T07:05:00.249Z,4.0
2022-08-05T07:10:03.776Z,4.5
2022-08-05T07:15:00.739Z,2.0
2022-08-05T07:20:31.968Z,2.7
2022-08-05T07:25:22.344Z,4.2
2022-08-05T07:30:22.011Z,3.9
2022-08-05T07:35:00.247Z,2.4
2022-08-05T07:40:27.296Z,4.3
2022-08-05T07:45:00.517Z,3.1
2022-08-05T07:50:06.762Z,4.6
2022-08-05T07:55:00.243Z,6.6
2022-08-05T08:00:00.249Z,3.0
2022-08-05T08:05:00.619Z,4.1
2022-08-05T08:10:01.533Z,5.5
2022-08-05T08:15:04.290Z,3.1
2022-08-05T08:20:23.573Z,1.1
2022-08-05T08:25:15.951Z,2.7
2022-08-05T08:30:04.962Z,2.2
2022-08-05T08:35:00.244Z,1.8
2022-08-05T08:40:03.721Z,1.5
2022-08-05T08:45:21.716Z,4.1
2022-08-05T08:50:23.571Z,2.0
2022-08-05T08:55:00.559Z,1.8
2022-08-05T09:00:00.329Z,2.9
2022-08-05T09:05:17.037Z,2.0
2022-08-05T09:10:00.241Z,2.3
2022-08-05T09:15:06.581Z,0.1
2022-08-05T09:20:05.374Z,0.0
2022-08-05T09:25:00.300Z,0.7
2022-08-05T09:30:06.619Z,2.7
2022-08-05T09:35:02.615Z,0.6
2022-08-05T09:40:00.505Z,3.6
2022-08-05T09:45:17.328Z,1.3
2022-08-05T09:50:03.296Z,0.6
2022-08-05T09:55:56.060Z,0.3
2022-08-05T10:00:07.373Z,3.1
2022-08-05T10:05:00.253Z,2.4
2022-08-05T10:10:15.435Z,0.6
2022-08-05T10:15:01.561Z,0.6
2022-08-05T10:20:09.863Z,0.4
2022-08-05T10:25:01.351Z,0.0
2022-08-05T10:30:41.811Z,1.3
2022-08-05T10:35:01.441Z,0.1
2022-08-05T10:40:17.743Z,1.2
2022-08-05T10:45:00.277Z,1.3
2022-08-05T10:50:20.386Z,1.2
2022-08-05T10:55:00.229Z,0.3
2022-08-05T11:00:10.098Z,1.5
2022-08-05T11:05:00.420Z,2.1
2022-08-05T11:10:10.328Z,1.1
2022-08-05T11:15:12.135Z,1.9
2022-08-05T11:20:17.746Z,1.9
2022-08-05T11:25:01.641Z,2.2
2022-08-05T11:30:00.290Z,2.0
2022-08-05T11:35:00.358Z,2.9
2022-08-05T11:40:04.044Z,3.2
2022-08-05T11:45:00.258Z,3.5
2022-08-05T11:50:01.789Z,3.1
2022-08-05T11:55:07.271Z,2.2
2022-08-05T12:00:00.259Z,1.4
2022-08-05T12:05:00.804Z,1.8
2022-08-05T12:10:09.708Z,1.7
2022-08-05T12:15:00.266Z,1.8
2022-08-05T12:20:16.619Z,1.5
2022-08-05T12:25:00.596Z,2.9
2022-08-05T12:30:03.564Z,2.9
2022-08-05T12:35:04.284Z,3.0
2022-08-05T12:40:10.384Z,1.3
2022-08-05T12:45:00.246Z,4.7
2022-08-05T12:50:05.936Z,4.8
2022-08-05T12:55:00.225Z,4.3
2022-08-05T13:01:59.016Z,2.6
2022-08-05T13:05:00.350Z,4.1
2022-08-05T13:10:01.288Z,4.1
2022-08-05T13:25:05.310Z,3.4
2022-08-05T13:30:33.387Z,2.9
2022-08-05T13:35:00.627Z,4.3
2022-08-05T13:40:14.733Z,4.1
2022-08-05T13:45:00.872Z,4.3
2022-08-05T13:50:05.060Z,4.0
2022-08-05T13:55:01.363Z,2.7
2022-08-05T14:00:02.270Z,3.2
2022-08-05T14:05:00.999Z,3.8
2022-08-05T14:10:00.713Z,3.4
2022-08-05T14:15:00.223Z,4.0
2022-08-05T14:20:04.884Z,4.2
2022-08-05T14:25:00.202Z,6.0
2022-08-05T14:30:01.542Z,3.0
2022-08-05T14:35:00.238Z,3.6
2022-08-05T14:40:00.569Z,6.0
2022-08-05T14:45:00.186Z,6.0
2022-08-05T14:50:17.588Z,6.4
2022-08-05T14:55:01.266Z,6.4
2022-08-05T15:00:00.264Z,5.4
2022-08-05T15:05:00.593Z,3.4
2022-08-05T15:10:03.475Z,7.0
2022-08-05T15:15:01.748Z,6.9
2022-08-05T15:20:00.339Z,2.7
2022-08-05T15:25:11.803Z,6.4
2022-08-05T15:30:00.288Z,4.8
2022-08-05T15:35:10.909Z,5.5
2022-08-05T15:40:42.104Z,5.3
2022-08-05T15:45:00.239Z,3.1
2022-08-05T15:50:00.596Z,6.0
2022-08-05T15:55:01.574Z,5.9
2022-08-05T16:00:02.647Z,10.0
2022-08-05T16:05:00.654Z,8.6
2022-08-05T16:10:00.285Z,8.5
2022-08-05T16:15:00.806Z,7.4
2022-08-05T16:20:11.879Z,6.7
2022-08-05T16:25:09.381Z,11.3
2022-08-05T16:30:00.314Z,8.6
2022-08-05T16:35:00.244Z,5.9
2022-08-05T16:40:07.547Z,6.3
2022-08-05T16:45:00.240Z,7.8
2022-08-05T16:50:00.692Z,9.7
2022-08-05T16:55:00.225Z,11.7
2022-08-05T17:00:08.767Z,8.4
2022-08-05T17:05:00.326Z,7.3
2022-08-05T17:10:02.904Z,5.8
2022-08-05T17:15:00.348Z,6.2
2022-08-05T17:20:01.972Z,6.5
2022-08-05T17:25:01.055Z,6.9
2022-08-05T17:30:02.751Z,7.7
2022-08-05T17:35:00.263Z,5.2
2022-08-05T17:40:00.921Z,2.7
2022-08-05T17:45:18.318Z,3.4
2022-08-05T17:50:11.069Z,5.2
2022-08-05T17:55:00.230Z,6.0
2022-08-05T18:00:06.053Z,5.1
2022-08-05T18:05:00.324Z,2.2
2022-08-05T18:10:08.854Z,5.4
2022-08-05T18:15:00.246Z,4.4
2022-08-05T18:20:01.153Z,5.7
2022-08-05T18:25:00.222Z,6.0
2022-08-05T18:30:00.334Z,3.9
2022-08-05T18:35:01.335Z,4.0
2022-08-05T18:40:31.261Z,3.6
2022-08-05T18:45:01.588Z,3.6
2022-08-05T18:50:00.579Z,3.1
2022-08-05T18:55:00.323Z,5.0
2022-08-05T19:00:10.388Z,5.2
2022-08-05T19:06:06.924Z,4.6
2022-08-05T19:10:01.406Z,3.9
2022-08-05T19:15:02.843Z,2.1
2022-08-05T19:20:00.324Z,2.5
2022-08-05T19:25:00.289Z,2.3
2022-08-05T19:30:02.982Z,3.1
2022-08-05T19:35:06.475Z,2.9
2022-08-05T19:40:01.564Z,2.7
2022-08-05T19:45:01.540Z,0.9
2022-08-05T19:50:00.285Z,2.3
2022-08-05T19:55:06.698Z,1.5
2022-08-05T20:00:04.694Z,4.0
2022-08-05T20:05:00.474Z,1.1
2022-08-05T20:10:00.311Z,0.6
2022-08-05T20:15:00.697Z,0.0
2022-08-05T20:20:00.804Z,0.0
2022-08-05T20:25:00.242Z,1.3
2022-08-05T20:30:02.003Z,0.0
2022-08-05T20:35:00.253Z,0.1
2022-08-05T20:40:00.599Z,0.0
2022-08-05T20:45:02.722Z,0.2
2022-08-05T20:50:02.531Z,0.0
2022-08-05T20:55:54.581Z,0.0
2022-08-05T21:00:21.538Z,0.4
2022-08-05T21:05:02.539Z,0.0
2022-08-05T21:10:01.201Z,0.0
2022-08-05T21:15:00.267Z,0.3
2022-08-05T21:20:07.339Z,0.0
2022-08-05T21:25:00.282Z,0.3
2022-08-05T21:30:02.169Z,0.6
2022-08-05T21:35:17.961Z,0.6
2022-08-05T21:40:00.638Z,0.4
2022-08-05T21:45:00.656Z,0.2
2022-08-05T21:50:01.703Z,1.1
2022-08-05T21:55:07.287Z,1.2
2022-08-05T22:00:04.912Z,2.3
2022-08-05T22:05:00.284Z,2.6
2022-08-05T22:10:00.329Z,2.5
2022-08-05T22:15:00.226Z,0.9
2022-08-05T22:20:13.494Z,1.0
2022-08-05T22:25:00.231Z,1.2
2022-08-05T22:30:00.349Z,1.0
2022-08-05T22:35:00.343Z,2.0
2022-08-05T22:40:01.508Z,1.9
2022-08-05T22:45:00.872Z,4.0
2022-08-05T22:50:18.838Z,1.5
2022-08-05T22:55:00.306Z,4.6
2022-08-05T23:00:02.964Z,4.2
2022-08-05T23:05:04.738Z,5.9
2022-08-05T23:10:02.808Z,3.7
2022-08-05T23:15:01.458Z,4.1
2022-08-05T23:20:00.242Z,3.3
2022-08-05T23:25:00.228Z,4.0
2022-08-05T23:30:00.263Z,5.0
2022-08-05T23:35:00.231Z,5.0
2022-08-05T23:40:09.473Z,4.6
2022-08-05T23:45:00.249Z,6.5
2022-08-05T23:50:01.059Z,4.0
2022-08-05T23:55:00.247Z,3.2
